createdAt,value
2019-01-19T00:01:40.805Z,27.77
2019-01-19T00:04:21.718Z,23.67
2019-01-19T00:07:19.085Z,23.03
2019-01-19T00:09:59.978Z,29.30
2019-01-19T00:12:34.094Z,23.27
2019-01-19T00:15:04.589Z,25.30
2019-01-19T00:17:53.150Z,23.50
2019-01-19T00:20:33.506Z,21.77
2019-01-19T00:23:24.816Z,23.60
2019-01-19T00:26:12.139Z,28.73
2019-01-19T00:28:55.051Z,24.63
2019-01-19T00:31:29.798Z,25.10
2019-01-19T00:34:23.978Z,25.67
2019-01-19T00:36:59.185Z,24.73
2019-01-19T00:39:48.988Z,23.13
2019-01-19T00:42:27.123Z,29.93
2019-01-19T00:44:59.478Z,26.93
2019-01-19T00:47:43.931Z,28.67
2019-01-19T00:50:15.742Z,22.47
2019-01-19T00:52:51.055Z,23.23
2019-01-19T00:55:36.002Z,24.00
2019-01-19T00:58:24.763Z,23.73
2019-01-19T01:00:56.512Z,27.27
2019-01-19T01:03:32.062Z,25.80
2019-01-19T01:06:12.627Z,26.80
2019-01-19T01:09:19.102Z,25.40
2019-01-19T01:11:51.251Z,29.07
2019-01-19T01:14:39.839Z,26.97
2019-01-19T01:17:11.869Z,27.33
2019-01-19T01:20:10.779Z,27.17
2019-01-19T01:22:51.427Z,25.37
2019-01-19T01:25:29.043Z,21.97
2019-01-19T01:28:20.054Z,30.57
2019-01-19T01:30:54.474Z,24.23
2019-01-19T01:33:26.053Z,28.07
2019-01-19T01:36:14.447Z,28.93
2019-01-19T01:38:52.478Z,25.93
2019-01-19T01:41:32.431Z,23.67
2019-01-19T01:44:15.736Z,29.70
2019-01-19T01:47:04.147Z,26.70
2019-01-19T01:49:44.419Z,50.33
2019-01-19T01:52:18.986Z,34.80
2019-01-19T01:54:53.509Z,31.43
2019-01-19T01:57:24.862Z,27.20
2019-01-19T02:00:05.941Z,26.97
2019-01-19T02:03:04.526Z,29.53
2019-01-19T02:05:42.062Z,27.93
2019-01-19T02:08:16.966Z,37.97
2019-01-19T02:11:06.665Z,41.83
2019-01-19T02:13:58.147Z,30.60
2019-01-19T02:16:58.457Z,41.90
2019-01-19T02:19:49.494Z,45.70
2019-01-19T02:22:45.623Z,47.47
2019-01-19T02:25:32.872Z,38.30
2019-01-19T02:28:35.014Z,46.53
2019-01-19T02:31:25.199Z,33.17
2019-01-19T02:34:05.978Z,40.73
2019-01-19T02:36:46.358Z,31.30
2019-01-19T02:39:35.598Z,40.97
2019-01-19T02:42:18.921Z,41.00
2019-01-19T02:45:03.278Z,36.40
2019-01-19T02:47:53.245Z,34.97
2019-01-19T02:50:24.975Z,35.70
2019-01-19T02:53:28.226Z,40.40
2019-01-19T02:56:05.614Z,35.07
2019-01-19T02:58:49.264Z,45.53
2019-01-19T03:01:39.111Z,35.23
2019-01-19T03:04:13.636Z,30.93
2019-01-19T03:07:05.951Z,34.90
2019-01-19T03:12:57.649Z,46.83
2019-01-19T03:15:38.670Z,30.80
2019-01-19T03:18:27.375Z,35.23
2019-01-19T03:21:18.484Z,28.80
2019-01-19T03:23:56.261Z,28.97
2019-01-19T03:26:43.352Z,27.73
2019-01-19T03:29:33.264Z,27.23
2019-01-19T03:32:19.218Z,30.63
2019-01-19T03:35:08.438Z,29.00
2019-01-19T03:37:48.615Z,32.20
2019-01-19T03:40:34.592Z,32.00
2019-01-19T03:43:30.532Z,32.93
2019-01-19T03:46:14.174Z,31.77
2019-01-19T03:49:09.979Z,28.67
2019-01-19T03:51:53.605Z,26.63
2019-01-19T03:57:18.687Z,22.53
2019-01-19T04:00:02.595Z,30.57
2019-01-19T04:02:40.174Z,26.87
2019-01-19T04:05:26.571Z,31.13
2019-01-19T04:08:14.596Z,26.80
2019-01-19T04:11:12.098Z,29.07
2019-01-19T04:14:02.461Z,23.03
2019-01-19T04:16:40.861Z,30.37
2019-01-19T04:19:17.974Z,29.20
2019-01-19T04:21:58.921Z,24.07
2019-01-19T04:24:29.426Z,32.97
2019-01-19T04:26:58.099Z,23.03
2019-01-19T04:29:26.596Z,27.13
2019-01-19T04:31:54.889Z,25.53
2019-01-19T04:34:23.450Z,29.30
2019-01-19T04:36:52.898Z,23.07
2019-01-19T04:39:21.550Z,30.50
2019-01-19T04:41:50.088Z,28.80
2019-01-19T04:44:18.753Z,25.60
2019-01-19T04:46:47.704Z,29.00
2019-01-19T04:49:16.783Z,25.60
2019-01-19T04:51:45.625Z,30.53
2019-01-19T04:54:14.179Z,32.23
2019-01-19T04:56:42.899Z,26.60
2019-01-19T04:59:11.736Z,28.73
2019-01-19T05:01:40.028Z,29.40
2019-01-19T05:04:08.391Z,23.67
2019-01-19T05:06:36.862Z,27.43
2019-01-19T05:09:06.891Z,30.13
2019-01-19T05:11:35.438Z,24.53
2019-01-19T05:14:03.838Z,21.37
2019-01-19T05:16:32.582Z,25.53
2019-01-19T05:19:01.053Z,23.57
2019-01-19T05:21:30.272Z,21.43
2019-01-19T05:23:58.954Z,26.43
2019-01-19T05:26:27.257Z,25.90
2019-01-19T05:28:55.535Z,19.03
2019-01-19T05:31:23.831Z,24.73
2019-01-19T05:33:52.479Z,24.37
2019-01-19T05:36:21.157Z,22.83
2019-01-19T05:38:49.454Z,19.27
2019-01-19T05:41:17.750Z,22.23
2019-01-19T05:43:46.055Z,28.00
2019-01-19T05:46:21.195Z,25.37
2019-01-19T05:48:44.428Z,25.37
2019-01-19T05:51:12.730Z,25.13
2019-01-19T05:53:41.382Z,23.13
2019-01-19T05:56:10.143Z,21.80
2019-01-19T05:58:38.428Z,29.20
2019-01-19T06:01:07.101Z,27.33
2019-01-19T06:03:36.196Z,22.67
2019-01-19T06:06:05.342Z,21.37
2019-01-19T06:08:34.364Z,21.57
2019-01-19T06:11:02.750Z,18.67
2019-01-19T06:13:31.782Z,20.83
2019-01-19T06:16:00.217Z,21.67
2019-01-19T06:18:30.458Z,22.60
2019-01-19T06:20:58.739Z,18.77
2019-01-19T06:23:27.033Z,22.47
2019-01-19T06:25:55.791Z,19.43
2019-01-19T06:28:24.654Z,21.43
2019-01-19T06:30:53.287Z,24.40
2019-01-19T06:33:22.399Z,23.43
2019-01-19T06:35:51.158Z,20.53
2019-01-19T06:38:19.757Z,23.53
2019-01-19T06:40:48.168Z,19.10
2019-01-19T06:43:16.743Z,20.43
2019-01-19T06:45:45.435Z,22.10
2019-01-19T06:48:13.922Z,17.10
2019-01-19T06:50:42.954Z,19.07
2019-01-19T06:53:11.658Z,19.67
2019-01-19T06:55:39.954Z,18.13
2019-01-19T06:58:08.643Z,19.30
2019-01-19T07:00:36.991Z,21.27
2019-01-19T07:03:05.585Z,20.23
2019-01-19T07:05:34.317Z,21.33
2019-01-19T07:08:03.117Z,16.87
2019-01-19T07:10:32.161Z,21.80
2019-01-19T07:13:00.759Z,20.83
2019-01-19T07:15:29.332Z,22.77
2019-01-19T07:17:58.410Z,20.50
2019-01-19T07:20:29.035Z,14.10
2019-01-19T07:22:57.651Z,17.30
2019-01-19T07:25:26.482Z,18.47
2019-01-19T07:27:55.935Z,18.20
2019-01-19T07:30:25.031Z,14.90
2019-01-19T07:32:53.314Z,18.90
2019-01-19T07:35:21.621Z,15.43
2019-01-19T07:37:50.557Z,16.27
2019-01-19T07:40:18.991Z,18.77
2019-01-19T07:42:50.834Z,19.40
2019-01-19T07:45:20.627Z,17.20
2019-01-19T07:47:49.397Z,16.90
2019-01-19T07:50:19.261Z,15.37
2019-01-19T07:52:48.555Z,14.43
2019-01-19T07:55:19.073Z,14.27
2019-01-19T07:57:47.979Z,18.93
2019-01-19T08:00:19.400Z,13.07
2019-01-19T08:02:49.222Z,13.53
2019-01-19T08:05:17.527Z,16.43
2019-01-19T08:07:45.841Z,12.80
2019-01-19T08:10:16.420Z,12.07
2019-01-19T08:12:44.891Z,13.57
2019-01-19T08:15:17.297Z,13.60
2019-01-19T08:17:45.991Z,13.97
2019-01-19T08:20:15.519Z,12.17
2019-01-19T08:22:44.979Z,16.77
2019-01-19T08:25:13.853Z,16.73
2019-01-19T08:27:42.507Z,11.63
2019-01-19T08:30:22.483Z,14.10
2019-01-19T08:32:51.118Z,12.60
2019-01-19T08:35:20.212Z,12.77
2019-01-19T08:37:49.017Z,14.93
2019-01-19T08:40:23.127Z,13.27
2019-01-19T08:43:01.902Z,12.70
2019-01-19T08:45:31.464Z,12.97
2019-01-19T08:48:00.286Z,13.10
2019-01-19T08:50:28.577Z,11.17
2019-01-19T08:52:58.682Z,11.60
2019-01-19T08:55:27.586Z,9.33
2019-01-19T08:57:56.237Z,10.10
2019-01-19T09:00:24.842Z,10.97
2019-01-19T09:02:54.036Z,9.87
2019-01-19T09:05:22.375Z,10.73
2019-01-19T09:07:51.207Z,12.70
2019-01-19T09:10:20.017Z,12.23
2019-01-19T09:12:48.330Z,11.20
2019-01-19T09:15:22.243Z,8.23
2019-01-19T09:17:50.657Z,9.57
2019-01-19T09:20:19.081Z,11.53
2019-01-19T09:22:49.549Z,12.47
2019-01-19T09:25:17.873Z,10.27
2019-01-19T09:27:46.739Z,8.20
2019-01-19T09:30:23.601Z,8.53
2019-01-19T09:32:52.488Z,8.63
2019-01-19T09:35:21.609Z,10.87
2019-01-19T09:37:50.183Z,7.57
2019-01-19T09:40:19.483Z,9.40
2019-01-19T09:42:48.172Z,9.30
2019-01-19T09:45:18.671Z,9.90
2019-01-19T09:47:47.287Z,9.30
2019-01-19T09:50:17.300Z,8.43
2019-01-19T09:52:45.719Z,8.63
2019-01-19T09:55:14.806Z,12.27
2019-01-19T09:57:43.382Z,11.03
2019-01-19T10:00:21.155Z,10.37
2019-01-19T10:02:49.671Z,8.60
2019-01-19T10:05:21.344Z,11.40
2019-01-19T10:07:49.721Z,8.77
2019-01-19T10:10:18.586Z,7.60
2019-01-19T10:12:47.672Z,9.60
2019-01-19T10:15:17.815Z,8.93
2019-01-19T10:17:46.627Z,8.73
2019-01-19T10:20:20.780Z,7.17
2019-01-19T10:22:49.317Z,7.83
2019-01-19T10:25:17.986Z,7.70
2019-01-19T10:27:46.752Z,8.10
2019-01-19T10:30:18.271Z,7.80
2019-01-19T10:32:46.984Z,8.57
2019-01-19T10:35:16.573Z,9.97
2019-01-19T10:37:45.374Z,8.40
2019-01-19T10:40:18.041Z,8.07
2019-01-19T10:42:46.644Z,8.53
2019-01-19T10:45:17.584Z,8.70
2019-01-19T10:47:46.177Z,9.50
2019-01-19T10:50:16.657Z,6.20
2019-01-19T10:52:45.487Z,8.57
2019-01-19T10:55:19.295Z,7.53
2019-01-19T10:57:47.567Z,6.80
2019-01-19T11:00:27.901Z,7.53
2019-01-19T11:02:57.183Z,8.20
2019-01-19T11:05:25.918Z,10.00
2019-01-19T11:07:54.593Z,7.30
2019-01-19T11:10:25.316Z,9.30
2019-01-19T11:12:53.922Z,6.40
2019-01-19T11:15:22.238Z,8.13
2019-01-19T11:17:50.892Z,6.10
2019-01-19T11:20:28.228Z,6.20
2019-01-19T11:22:57.263Z,5.93
2019-01-19T11:25:25.561Z,7.03
2019-01-19T11:27:53.902Z,7.77
2019-01-19T11:30:24.910Z,6.43
2019-01-19T11:32:53.538Z,7.60
2019-01-19T11:35:22.144Z,7.23
2019-01-19T11:37:50.717Z,7.13
2019-01-19T11:40:22.058Z,6.50
2019-01-19T11:42:50.757Z,7.70
2019-01-19T11:45:20.779Z,6.63
2019-01-19T11:47:49.085Z,5.83
2019-01-19T11:50:17.376Z,7.13
2019-01-19T11:52:46.001Z,7.30
2019-01-19T11:55:18.443Z,6.00
2019-01-19T11:57:47.963Z,6.27
2019-01-19T12:00:24.959Z,6.30
2019-01-19T12:02:53.502Z,6.17
2019-01-19T12:05:21.812Z,6.97
2019-01-19T12:07:50.093Z,5.20
2019-01-19T12:10:23.540Z,8.20
2019-01-19T12:12:52.188Z,11.67
2019-01-19T12:15:20.467Z,19.47
2019-01-19T12:17:49.139Z,23.57
2019-01-19T12:20:20.075Z,27.17
2019-01-19T12:22:48.786Z,32.47
2019-01-19T12:25:22.562Z,44.07
2019-01-19T12:27:50.870Z,48.63
2019-01-19T12:30:24.206Z,64.03
2019-01-19T12:32:52.518Z,66.00
2019-01-19T12:35:21.110Z,65.83
2019-01-19T12:37:49.698Z,60.70
2019-01-19T12:40:20.405Z,57.80
2019-01-19T12:42:50.675Z,60.00
2019-01-19T12:45:22.696Z,55.97
2019-01-19T12:47:51.255Z,54.13
2019-01-19T12:50:21.960Z,56.73
2019-01-19T12:52:50.624Z,57.13
2019-01-19T12:55:18.933Z,63.97
2019-01-19T12:57:47.237Z,63.87
2019-01-19T13:00:18.261Z,66.67
2019-01-19T13:02:46.793Z,60.77
2019-01-19T13:05:18.632Z,65.27
2019-01-19T13:07:47.689Z,63.23
2019-01-19T13:10:22.642Z,61.77
2019-01-19T13:12:51.718Z,61.63
2019-01-19T13:15:35.830Z,60.93
2019-01-19T13:18:24.079Z,66.80
2019-01-19T13:21:21.133Z,65.60
2019-01-19T13:24:07.795Z,67.77
2019-01-19T13:26:42.456Z,65.33
2019-01-19T13:29:25.342Z,70.40
2019-01-19T13:32:00.085Z,63.90
2019-01-19T13:34:49.793Z,70.20
2019-01-19T13:37:30.189Z,69.37
2019-01-19T13:40:19.671Z,61.00
2019-01-19T13:43:03.472Z,67.03
2019-01-19T13:45:47.409Z,68.30
2019-01-19T13:48:27.974Z,66.57
2019-01-19T13:51:16.455Z,63.17
2019-01-19T13:54:26.174Z,66.20
2019-01-19T13:57:19.733Z,68.80
2019-01-19T14:00:01.557Z,68.13
2019-01-19T14:02:54.493Z,67.70
2019-01-19T14:05:42.857Z,65.07
2019-01-19T14:08:20.984Z,67.13
2019-01-19T14:10:52.878Z,66.07
2019-01-19T14:13:56.237Z,66.80
2019-01-19T14:16:58.018Z,66.43
2019-01-19T14:19:32.748Z,66.23
2019-01-19T14:22:30.523Z,66.30
2019-01-19T14:25:02.419Z,65.33
2019-01-19T14:27:57.701Z,66.90
2019-01-19T14:30:32.147Z,65.93
2019-01-19T14:33:19.179Z,61.83
2019-01-19T14:35:58.828Z,63.93
2019-01-19T14:38:39.154Z,62.53
2019-01-19T14:41:10.730Z,61.03
2019-01-19T14:44:00.027Z,59.20
2019-01-19T14:46:34.346Z,57.23
2019-01-19T14:49:20.099Z,54.77
2019-01-19T14:54:46.032Z,59.93
2019-01-19T14:57:21.134Z,66.83
2019-01-19T15:00:16.271Z,76.57
2019-01-19T15:03:02.991Z,72.20
2019-01-19T15:05:43.561Z,73.07
2019-01-19T15:08:30.079Z,73.70
2019-01-19T15:11:07.658Z,73.20
2019-01-19T15:13:45.498Z,68.53
2019-01-19T15:19:26.568Z,71.60
2019-01-19T15:22:10.713Z,78.60
2019-01-19T15:24:54.662Z,76.03
2019-01-19T15:27:26.346Z,78.90
2019-01-19T15:30:06.962Z,84.53
2019-01-19T15:32:47.748Z,75.13
2019-01-19T15:35:38.054Z,70.67
2019-01-19T15:38:21.431Z,72.87
2019-01-19T15:40:55.800Z,72.73
2019-01-19T15:43:39.099Z,66.40
2019-01-19T15:46:30.071Z,70.00
2019-01-19T15:49:13.756Z,67.50
2019-01-19T15:51:56.705Z,67.13
2019-01-19T15:54:40.320Z,60.67
2019-01-19T15:57:45.006Z,57.70
2019-01-19T16:00:19.566Z,52.13
2019-01-19T16:02:51.471Z,80.33
2019-01-19T16:05:35.265Z,173.77
2019-01-19T16:08:25.160Z,227.53
2019-01-19T16:11:13.408Z,180.87
2019-01-19T16:14:01.748Z,171.40
2019-01-19T16:16:52.867Z,178.67
2019-01-19T16:19:39.640Z,145.23
2019-01-19T16:22:34.159Z,147.77
2019-01-19T16:25:23.937Z,146.97
2019-01-19T16:28:18.765Z,134.07
2019-01-19T16:31:09.822Z,122.40
2019-01-19T16:33:50.208Z,151.93
2019-01-19T16:36:37.128Z,143.30
2019-01-19T16:39:11.706Z,141.03
2019-01-19T16:41:49.195Z,126.60
2019-01-19T16:44:32.699Z,111.97
2019-01-19T16:47:22.760Z,103.83
2019-01-19T16:49:57.089Z,110.77
2019-01-19T16:55:44.487Z,169.20
2019-01-19T16:58:25.664Z,186.27
2019-01-19T17:01:03.079Z,178.00
2019-01-19T17:03:43.519Z,160.80
2019-01-19T17:06:30.570Z,146.73
2019-01-19T17:09:10.836Z,145.73
2019-01-19T17:11:58.763Z,146.60
2019-01-19T17:14:58.471Z,139.30
2019-01-19T17:17:30.443Z,135.73
2019-01-19T17:20:10.803Z,154.53
2019-01-19T17:22:42.743Z,184.50
2019-01-19T17:25:41.640Z,220.53
2019-01-19T17:28:20.070Z,195.83
2019-01-19T17:31:00.499Z,194.23
2019-01-19T17:33:32.410Z,195.00
2019-01-19T17:36:16.186Z,202.77
2019-01-19T17:39:09.093Z,191.97
2019-01-19T17:42:04.914Z,188.67
2019-01-19T17:44:39.877Z,180.40
2019-01-19T17:47:17.145Z,177.57
2019-01-19T17:49:51.726Z,184.17
2019-01-19T17:52:32.094Z,165.53
2019-01-19T17:55:15.774Z,154.67
2019-01-19T17:57:52.935Z,161.63
2019-01-19T18:00:57.646Z,152.23
2019-01-19T18:03:52.989Z,159.53
2019-01-19T18:06:42.456Z,174.50
2019-01-19T18:09:25.611Z,205.17
2019-01-19T18:12:06.160Z,210.17
2019-01-19T18:14:46.636Z,186.67
2019-01-19T18:17:42.123Z,179.90
2019-01-19T18:20:25.662Z,184.47
2019-01-19T18:23:09.506Z,201.40
2019-01-19T18:26:11.237Z,228.97
2019-01-19T18:28:56.550Z,194.47
2019-01-19T18:31:46.628Z,190.83
2019-01-19T18:34:36.503Z,191.67
2019-01-19T18:37:20.103Z,171.87
2019-01-19T18:39:54.975Z,174.63
2019-01-19T18:42:42.127Z,172.50
2019-01-19T18:45:19.891Z,177.13
2019-01-19T18:48:00.352Z,192.97
2019-01-19T18:50:41.161Z,210.00
2019-01-19T18:53:21.507Z,208.83
2019-01-19T18:56:01.920Z,197.87
2019-01-19T18:58:54.497Z,190.77
2019-01-19T19:01:41.351Z,208.90
2019-01-19T19:04:21.881Z,188.33
2019-01-19T19:06:56.594Z,187.83
2019-01-19T19:09:28.199Z,178.43
2019-01-19T19:12:02.879Z,182.70
2019-01-19T19:14:42.884Z,189.77
2019-01-19T19:17:35.652Z,196.87
2019-01-19T19:20:10.102Z,205.67
2019-01-19T19:23:10.863Z,216.07
2019-01-19T19:25:51.712Z,202.77
2019-01-19T19:28:32.391Z,197.70
2019-01-19T19:31:31.329Z,202.47
2019-01-19T19:34:12.259Z,184.70
2019-01-19T19:36:44.118Z,180.83
2019-01-19T19:39:33.758Z,171.43
2019-01-19T19:42:26.861Z,173.57
2019-01-19T19:45:16.744Z,174.00
2019-01-19T19:48:03.552Z,173.87
2019-01-19T19:50:56.402Z,192.60
2019-01-19T19:53:24.779Z,242.13
2019-01-19T19:55:52.546Z,237.67
2019-01-19T19:58:21.136Z,232.53
2019-01-19T20:00:50.753Z,254.40
2019-01-19T20:03:19.232Z,224.73
2019-01-19T20:05:47.600Z,218.63
2019-01-19T20:08:16.270Z,199.50
2019-01-19T20:10:44.630Z,208.63
2019-01-19T20:13:13.343Z,190.47
2019-01-19T20:15:41.633Z,173.60
2019-01-19T20:18:10.412Z,183.97
2019-01-19T20:20:38.730Z,181.10
2019-01-19T20:23:07.365Z,178.03
2019-01-19T20:25:35.695Z,207.13
2019-01-19T20:28:04.003Z,197.63
2019-01-19T20:30:32.581Z,222.20
2019-01-19T20:33:01.000Z,237.13
2019-01-19T20:35:29.580Z,248.57
2019-01-19T20:37:58.331Z,251.33
2019-01-19T20:40:26.957Z,258.20
2019-01-19T20:42:55.633Z,256.10
2019-01-19T20:45:23.954Z,284.20
2019-01-19T20:47:52.601Z,264.80
2019-01-19T20:50:21.078Z,258.80
2019-01-19T20:52:49.777Z,255.67
2019-01-19T20:55:18.451Z,253.90
2019-01-19T20:57:47.010Z,253.90
2019-01-19T21:00:19.459Z,240.80
2019-01-19T21:02:48.083Z,240.20
2019-01-19T21:05:16.668Z,233.63
2019-01-19T21:07:44.998Z,231.07
2019-01-19T21:10:13.293Z,226.57
2019-01-19T21:12:41.911Z,199.97
2019-01-19T21:15:15.438Z,232.90
2019-01-19T21:17:43.866Z,209.17
2019-01-19T21:20:14.577Z,241.97
2019-01-19T21:22:43.231Z,214.73
2019-01-19T21:25:13.208Z,215.03
2019-01-19T21:27:41.816Z,207.37
2019-01-19T21:30:15.517Z,199.00
2019-01-19T21:32:44.192Z,218.23
2019-01-19T21:35:12.486Z,238.27
2019-01-19T21:37:41.059Z,214.77
2019-01-19T21:40:11.789Z,229.73
2019-01-19T21:42:40.199Z,214.43
2019-01-19T21:45:14.840Z,210.70
2019-01-19T21:47:43.250Z,220.40
2019-01-19T21:50:12.010Z,208.37
2019-01-19T21:52:40.774Z,202.67
2019-01-19T21:55:10.368Z,205.20
2019-01-19T21:57:38.952Z,188.50
2019-01-19T22:00:16.346Z,179.97
2019-01-19T22:02:44.761Z,178.23
2019-01-19T22:05:13.406Z,181.47
2019-01-19T22:07:42.083Z,182.23
2019-01-19T22:10:15.931Z,172.17
2019-01-19T22:12:44.217Z,170.93
2019-01-19T22:15:17.566Z,162.37
2019-01-19T22:17:46.152Z,163.63
2019-01-19T22:20:16.787Z,207.63
2019-01-19T22:22:45.364Z,190.63
2019-01-19T22:25:13.942Z,187.40
2019-01-19T22:27:43.905Z,192.43
2019-01-19T22:30:17.805Z,201.70
2019-01-19T22:32:46.972Z,193.53
2019-01-19T22:35:15.542Z,182.23
2019-01-19T22:37:44.142Z,184.27
2019-01-19T22:40:15.191Z,175.97
2019-01-19T22:42:43.480Z,169.47
2019-01-19T22:45:13.421Z,161.83
2019-01-19T22:47:42.053Z,159.80
2019-01-19T22:50:16.195Z,154.50
2019-01-19T22:52:44.856Z,152.13
2019-01-19T22:55:13.542Z,150.77
2019-01-19T22:57:42.119Z,145.40
2019-01-19T23:00:32.146Z,146.97
2019-01-19T23:03:00.502Z,153.03
2019-01-19T23:05:29.182Z,146.73
2019-01-19T23:07:57.760Z,145.67
2019-01-19T23:10:26.298Z,143.53
2019-01-19T23:12:54.929Z,138.90
2019-01-19T23:15:23.502Z,139.53
2019-01-19T23:17:51.823Z,120.77
2019-01-19T23:20:20.528Z,117.20
2019-01-19T23:22:49.150Z,123.63
2019-01-19T23:25:17.734Z,108.20
2019-01-19T23:27:46.046Z,113.83
2019-01-19T23:30:15.671Z,149.87
2019-01-19T23:32:44.352Z,139.83
2019-01-19T23:35:12.658Z,158.60
2019-01-19T23:37:41.270Z,154.30
2019-01-19T23:40:13.351Z,159.97
2019-01-19T23:42:47.065Z,166.93
2019-01-19T23:45:12.251Z,156.50
2019-01-19T23:47:40.651Z,158.77
2019-01-19T23:50:10.111Z,155.27
2019-01-19T23:52:38.711Z,154.07
2019-01-19T23:55:07.178Z,128.80
2019-01-19T23:57:35.477Z,126.10
